Pagrindinis puslapis
METAR-TAF:

METAR-TAF

Oro uostai :

Memanbetsu, Japonija

platuma: 43-53N, ilguma: 144-10E, Aukštis: 33 m

Dabartinis oras

Ataskaita buvo paskelbta 23 minutes, ne 09:00 UTC
Vėjas 10 kt iš Pietryčių
Temperatūra 8°C
Drėgmė 42%
Slėgis 1017 hPa
Matomumas 10 km arba daugiau
nėra debesų žemiau 1500 m ir nėra kamuolinių lietaus debesų

METAR: RJCM 310900Z 14010KT CAVOK 08/M04 Q1017

Laikas: 18:23 (09:23 UTC)

Prognozė

Ataskaita buvo paskelbta 4 valandos ir 11 minutes, ne 05:12 UTC
Prognozė galioja nuo 31 metu 06 UTC su 01 metu 12 UTC
Vėjas 14 kt iš Pietų
Matomumas 10 km arba daugiau
Mažai debesys ne aukštis 4000 ft
Tapsmas
nuo 01 metu 09 UTC su 01 metu 12 UTC
Vėjas 12 kt iš Šiaurės/Šiaurės Vakarų

TAF: RJCM 310512Z 3106/0112 19014KT 9999 FEW040 BECMG 0109/0112 34012KT

Orai ataskaitas ir orų prognozės (METAR, TAF).

turimą stotys yra geltonos ir raudonos taškus žemėlapyje.

Perkelti pele per norėdami pamatyti stoties vardą.

Tada spustelėkite, norėdami matyti oro stebėjimo ir prognozės.

Norėdami pakeisti žemėlapį: spustelėkite ant žalios mygtukų su juodo kryžiaus žemyn,; žalią mygtuką su brūkšneliu, jei norite nutolinti; arba žalių rodyklių gretimoms žemėlapius.


METAR-TAF: